sensor_id;sensor_type;location;lat;lon;timestamp;P1;durP1;ratioP1;P2;durP2;ratioP2
34960;SDS011;30789;52.030;7.110;2022-11-15T00:00:32;15.63;;;10.65;;
34960;SDS011;30789;52.030;7.110;2022-11-15T00:02:59;14.15;;;9.45;;
34960;SDS011;30789;52.030;7.110;2022-11-15T00:05:25;14.85;;;9.82;;
34960;SDS011;30789;52.030;7.110;2022-11-15T00:07:52;19.77;;;9.95;;
34960;SDS011;30789;52.030;7.110;2022-11-15T00:10:18;13.90;;;9.57;;
34960;SDS011;30789;52.030;7.110;2022-11-15T00:12:46;16.55;;;10.07;;
34960;SDS011;30789;52.030;7.110;2022-11-15T00:15:13;18.40;;;9.85;;
34960;SDS011;30789;52.030;7.110;2022-11-15T00:17:39;18.25;;;10.25;;
34960;SDS011;30789;52.030;7.110;2022-11-15T00:20:06;14.82;;;9.48;;
34960;SDS011;30789;52.030;7.110;2022-11-15T00:22:34;15.23;;;9.32;;
34960;SDS011;30789;52.030;7.110;2022-11-15T00:25:00;17.83;;;10.05;;
34960;SDS011;30789;52.030;7.110;2022-11-15T00:27:27;14.73;;;9.02;;
34960;SDS011;30789;52.030;7.110;2022-11-15T00:29:54;15.43;;;10.95;;
34960;SDS011;30789;52.030;7.110;2022-11-15T00:32:21;18.65;;;10.15;;
34960;SDS011;30789;52.030;7.110;2022-11-15T00:34:47;14.63;;;10.05;;
34960;SDS011;30789;52.030;7.110;2022-11-15T00:37:14;13.90;;;9.30;;
34960;SDS011;30789;52.030;7.110;2022-11-15T00:39:40;15.88;;;9.50;;
34960;SDS011;30789;52.030;7.110;2022-11-15T00:42:07;13.68;;;9.57;;
34960;SDS011;30789;52.030;7.110;2022-11-15T00:44:33;15.05;;;9.38;;
34960;SDS011;30789;52.030;7.110;2022-11-15T00:47:01;18.20;;;10.15;;
34960;SDS011;30789;52.030;7.110;2022-11-15T00:49:27;15.55;;;9.57;;
34960;SDS011;30789;52.030;7.110;2022-11-15T00:51:54;15.43;;;9.85;;
34960;SDS011;30789;52.030;7.110;2022-11-15T00:54:20;15.52;;;10.60;;
34960;SDS011;30789;52.030;7.110;2022-11-15T00:56:47;16.23;;;10.82;;
34960;SDS011;30789;52.030;7.110;2022-11-15T00:59:13;14.52;;;9.82;;
34960;SDS011;30789;52.030;7.110;2022-11-15T01:01:40;17.08;;;10.50;;
34960;SDS011;30789;52.030;7.110;2022-11-15T01:04:07;16.15;;;10.75;;
34960;SDS011;30789;52.030;7.110;2022-11-15T01:06:34;17.55;;;10.40;;
34960;SDS011;30789;52.030;7.110;2022-11-15T01:09:00;19.42;;;10.73;;
34960;SDS011;30789;52.030;7.110;2022-11-15T01:11:27;15.82;;;10.40;;
34960;SDS011;30789;52.030;7.110;2022-11-15T01:13:53;15.38;;;10.25;;
34960;SDS011;30789;52.030;7.110;2022-11-15T01:16:20;15.18;;;10.13;;
34960;SDS011;30789;52.030;7.110;2022-11-15T01:18:47;16.10;;;10.05;;
34960;SDS011;30789;52.030;7.110;2022-11-15T01:21:16;18.42;;;10.35;;
34960;SDS011;30789;52.030;7.110;2022-11-15T01:23:44;15.10;;;9.85;;
34960;SDS011;30789;52.030;7.110;2022-11-15T01:26:12;17.63;;;10.70;;
34960;SDS011;30789;52.030;7.110;2022-11-15T01:28:40;17.33;;;10.95;;
34960;SDS011;30789;52.030;7.110;2022-11-15T01:31:09;20.35;;;10.95;;
34960;SDS011;30789;52.030;7.110;2022-11-15T01:33:38;16.52;;;9.88;;
34960;SDS011;30789;52.030;7.110;2022-11-15T01:36:05;15.02;;;9.90;;
34960;SDS011;30789;52.030;7.110;2022-11-15T01:38:34;17.75;;;9.95;;
34960;SDS011;30789;52.030;7.110;2022-11-15T01:41:01;15.60;;;10.45;;
34960;SDS011;30789;52.030;7.110;2022-11-15T01:43:32;16.08;;;9.88;;
34960;SDS011;30789;52.030;7.110;2022-11-15T01:46:00;13.00;;;8.93;;
34960;SDS011;30789;52.030;7.110;2022-11-15T01:48:32;13.90;;;8.85;;
34960;SDS011;30789;52.030;7.110;2022-11-15T01:51:01;14.75;;;9.40;;
34960;SDS011;30789;52.030;7.110;2022-11-15T01:53:30;13.80;;;9.48;;
34960;SDS011;30789;52.030;7.110;2022-11-15T01:56:01;15.95;;;9.52;;
34960;SDS011;30789;52.030;7.110;2022-11-15T01:58:29;17.52;;;9.75;;
34960;SDS011;30789;52.030;7.110;2022-11-15T02:00:56;13.65;;;8.60;;
34960;SDS011;30789;52.030;7.110;2022-11-15T02:03:23;16.90;;;9.30;;
34960;SDS011;30789;52.030;7.110;2022-11-15T02:05:55;14.85;;;9.88;;
34960;SDS011;30789;52.030;7.110;2022-11-15T02:08:22;14.55;;;9.25;;
34960;SDS011;30789;52.030;7.110;2022-11-15T02:10:49;14.23;;;9.52;;
34960;SDS011;30789;52.030;7.110;2022-11-15T02:13:16;14.63;;;9.80;;
34960;SDS011;30789;52.030;7.110;2022-11-15T02:15:55;14.52;;;9.18;;
34960;SDS011;30789;52.030;7.110;2022-11-15T02:18:31;11.57;;;8.82;;
34960;SDS011;30789;52.030;7.110;2022-11-15T02:21:07;14.75;;;9.02;;
34960;SDS011;30789;52.030;7.110;2022-11-15T02:29:40;16.00;;;9.65;;
34960;SDS011;30789;52.030;7.110;2022-11-15T02:32:26;24.20;;;11.63;;
34960;SDS011;30789;52.030;7.110;2022-11-15T02:35:01;13.95;;;9.75;;
34960;SDS011;30789;52.030;7.110;2022-11-15T02:37:34;17.80;;;10.20;;
34960;SDS011;30789;52.030;7.110;2022-11-15T02:40:11;16.23;;;8.98;;
34960;SDS011;30789;52.030;7.110;2022-11-15T02:42:45;12.68;;;9.10;;
34960;SDS011;30789;52.030;7.110;2022-11-15T02:45:35;15.57;;;9.68;;
34960;SDS011;30789;52.030;7.110;2022-11-15T02:48:06;14.30;;;9.63;;
34960;SDS011;30789;52.030;7.110;2022-11-15T02:50:35;11.82;;;9.05;;
34960;SDS011;30789;52.030;7.110;2022-11-15T02:53:01;14.73;;;8.90;;
34960;SDS011;30789;52.030;7.110;2022-11-15T02:55:29;16.42;;;10.23;;
34960;SDS011;30789;52.030;7.110;2022-11-15T02:58:04;13.43;;;9.50;;
34960;SDS011;30789;52.030;7.110;2022-11-15T03:00:44;14.65;;;9.50;;
34960;SDS011;30789;52.030;7.110;2022-11-15T03:03:21;14.50;;;9.32;;
34960;SDS011;30789;52.030;7.110;2022-11-15T03:06:01;13.95;;;9.13;;
34960;SDS011;30789;52.030;7.110;2022-11-15T03:08:37;15.77;;;9.80;;
34960;SDS011;30789;52.030;7.110;2022-11-15T03:11:13;14.98;;;9.90;;
34960;SDS011;30789;52.030;7.110;2022-11-15T03:13:43;12.10;;;8.23;;
34960;SDS011;30789;52.030;7.110;2022-11-15T03:16:15;12.25;;;8.20;;
34960;SDS011;30789;52.030;7.110;2022-11-15T03:21:17;14.90;;;9.25;;
34960;SDS011;30789;52.030;7.110;2022-11-15T03:23:45;13.52;;;8.63;;
34960;SDS011;30789;52.030;7.110;2022-11-15T03:26:14;14.10;;;8.57;;
34960;SDS011;30789;52.030;7.110;2022-11-15T03:28:46;15.80;;;8.50;;
34960;SDS011;30789;52.030;7.110;2022-11-15T03:31:17;14.43;;;9.35;;
34960;SDS011;30789;52.030;7.110;2022-11-15T03:34:07;15.45;;;7.95;;
34960;SDS011;30789;52.030;7.110;2022-11-15T03:36:40;13.90;;;8.55;;
34960;SDS011;30789;52.030;7.110;2022-11-15T03:39:07;12.65;;;8.25;;
34960;SDS011;30789;52.030;7.110;2022-11-15T03:41:35;14.13;;;8.48;;
34960;SDS011;30789;52.030;7.110;2022-11-15T03:44:10;12.60;;;8.95;;
34960;SDS011;30789;52.030;7.110;2022-11-15T03:46:43;13.70;;;9.02;;
34960;SDS011;30789;52.030;7.110;2022-11-15T03:49:16;11.18;;;8.05;;
34960;SDS011;30789;52.030;7.110;2022-11-15T03:51:48;10.45;;;7.60;;
34960;SDS011;30789;52.030;7.110;2022-11-15T03:54:15;12.10;;;8.23;;
34960;SDS011;30789;52.030;7.110;2022-11-15T03:56:41;12.70;;;8.63;;
34960;SDS011;30789;52.030;7.110;2022-11-15T03:59:08;11.13;;;8.13;;
34960;SDS011;30789;52.030;7.110;2022-11-15T04:01:34;10.48;;;8.15;;
34960;SDS011;30789;52.030;7.110;2022-11-15T04:04:01;12.93;;;8.43;;
34960;SDS011;30789;52.030;7.110;2022-11-15T04:06:28;12.85;;;8.05;;
34960;SDS011;30789;52.030;7.110;2022-11-15T04:08:55;13.15;;;8.95;;
34960;SDS011;30789;52.030;7.110;2022-11-15T04:11:21;12.60;;;7.78;;
34960;SDS011;30789;52.030;7.110;2022-11-15T04:13:48;11.18;;;8.20;;
34960;SDS011;30789;52.030;7.110;2022-11-15T04:16:14;12.90;;;8.43;;
34960;SDS011;30789;52.030;7.110;2022-11-15T04:18:41;10.27;;;8.20;;
34960;SDS011;30789;52.030;7.110;2022-11-15T04:21:07;9.57;;;7.18;;
34960;SDS011;30789;52.030;7.110;2022-11-15T04:23:53;12.55;;;7.70;;
34960;SDS011;30789;52.030;7.110;2022-11-15T04:26:37;11.52;;;7.22;;
34960;SDS011;30789;52.030;7.110;2022-11-15T04:29:04;11.05;;;7.57;;
34960;SDS011;30789;52.030;7.110;2022-11-15T04:31:48;11.52;;;8.20;;
34960;SDS011;30789;52.030;7.110;2022-11-15T04:34:14;13.70;;;7.75;;
34960;SDS011;30789;52.030;7.110;2022-11-15T04:36:41;10.77;;;7.57;;
34960;SDS011;30789;52.030;7.110;2022-11-15T04:39:26;12.57;;;7.72;;
34960;SDS011;30789;52.030;7.110;2022-11-15T04:41:52;9.43;;;6.80;;
34960;SDS011;30789;52.030;7.110;2022-11-15T04:44:19;10.50;;;7.57;;
34960;SDS011;30789;52.030;7.110;2022-11-15T04:46:45;11.40;;;7.47;;
34960;SDS011;30789;52.030;7.110;2022-11-15T04:49:12;13.35;;;8.20;;
34960;SDS011;30789;52.030;7.110;2022-11-15T04:51:38;11.10;;;8.80;;
34960;SDS011;30789;52.030;7.110;2022-11-15T04:54:05;13.10;;;8.23;;
34960;SDS011;30789;52.030;7.110;2022-11-15T04:56:33;11.10;;;7.85;;
34960;SDS011;30789;52.030;7.110;2022-11-15T04:58:59;13.43;;;7.95;;
34960;SDS011;30789;52.030;7.110;2022-11-15T05:01:25;11.85;;;8.27;;
34960;SDS011;30789;52.030;7.110;2022-11-15T05:03:52;10.77;;;7.55;;
34960;SDS011;30789;52.030;7.110;2022-11-15T05:06:42;10.00;;;7.03;;
34960;SDS011;30789;52.030;7.110;2022-11-15T05:09:08;13.52;;;7.47;;
34960;SDS011;30789;52.030;7.110;2022-11-15T05:11:36;14.55;;;8.23;;
34960;SDS011;30789;52.030;7.110;2022-11-15T05:14:02;11.77;;;7.80;;
34960;SDS011;30789;52.030;7.110;2022-11-15T05:16:29;11.55;;;7.07;;
34960;SDS011;30789;52.030;7.110;2022-11-15T05:18:55;10.13;;;6.47;;
34960;SDS011;30789;52.030;7.110;2022-11-15T05:21:22;10.60;;;6.70;;
34960;SDS011;30789;52.030;7.110;2022-11-15T05:23:49;10.68;;;6.63;;
34960;SDS011;30789;52.030;7.110;2022-11-15T05:26:16;9.75;;;6.97;;
34960;SDS011;30789;52.030;7.110;2022-11-15T05:28:44;10.73;;;7.10;;
34960;SDS011;30789;52.030;7.110;2022-11-15T05:31:12;11.23;;;6.72;;
34960;SDS011;30789;52.030;7.110;2022-11-15T05:33:40;11.50;;;7.45;;
34960;SDS011;30789;52.030;7.110;2022-11-15T05:36:09;8.55;;;6.55;;
34960;SDS011;30789;52.030;7.110;2022-11-15T05:38:39;9.05;;;6.40;;
34960;SDS011;30789;52.030;7.110;2022-11-15T05:41:06;10.20;;;6.75;;
34960;SDS011;30789;52.030;7.110;2022-11-15T05:43:33;12.45;;;6.53;;
34960;SDS011;30789;52.030;7.110;2022-11-15T05:46:03;9.75;;;6.35;;
34960;SDS011;30789;52.030;7.110;2022-11-15T05:48:30;9.57;;;6.68;;
34960;SDS011;30789;52.030;7.110;2022-11-15T05:50:57;10.05;;;7.00;;
34960;SDS011;30789;52.030;7.110;2022-11-15T05:53:25;10.95;;;7.82;;
34960;SDS011;30789;52.030;7.110;2022-11-15T05:55:52;10.10;;;6.50;;
34960;SDS011;30789;52.030;7.110;2022-11-15T05:58:18;11.50;;;6.82;;
34960;SDS011;30789;52.030;7.110;2022-11-15T06:00:46;11.07;;;6.47;;
34960;SDS011;30789;52.030;7.110;2022-11-15T06:03:14;7.93;;;6.20;;
34960;SDS011;30789;52.030;7.110;2022-11-15T06:05:40;11.15;;;6.72;;
34960;SDS011;30789;52.030;7.110;2022-11-15T06:08:07;9.23;;;6.50;;
34960;SDS011;30789;52.030;7.110;2022-11-15T06:10:33;12.50;;;6.35;;
34960;SDS011;30789;52.030;7.110;2022-11-15T06:13:00;9.85;;;6.82;;
34960;SDS011;30789;52.030;7.110;2022-11-15T06:15:28;10.25;;;6.90;;
34960;SDS011;30789;52.030;7.110;2022-11-15T06:17:55;12.32;;;6.60;;
34960;SDS011;30789;52.030;7.110;2022-11-15T06:20:24;10.85;;;6.43;;
34960;SDS011;30789;52.030;7.110;2022-11-15T06:22:51;11.52;;;6.50;;
34960;SDS011;30789;52.030;7.110;2022-11-15T06:25:22;13.43;;;7.55;;
34960;SDS011;30789;52.030;7.110;2022-11-15T06:27:50;11.98;;;8.30;;
34960;SDS011;30789;52.030;7.110;2022-11-15T06:30:17;12.63;;;8.02;;
34960;SDS011;30789;52.030;7.110;2022-11-15T06:32:43;11.27;;;7.88;;
34960;SDS011;30789;52.030;7.110;2022-11-15T06:35:10;10.95;;;7.13;;
34960;SDS011;30789;52.030;7.110;2022-11-15T06:37:38;11.10;;;7.35;;
34960;SDS011;30789;52.030;7.110;2022-11-15T06:40:05;10.98;;;7.68;;
34960;SDS011;30789;52.030;7.110;2022-11-15T06:42:32;9.30;;;7.15;;
34960;SDS011;30789;52.030;7.110;2022-11-15T06:44:59;11.80;;;6.70;;
34960;SDS011;30789;52.030;7.110;2022-11-15T06:47:25;9.98;;;7.32;;
34960;SDS011;30789;52.030;7.110;2022-11-15T06:49:52;10.07;;;7.35;;
34960;SDS011;30789;52.030;7.110;2022-11-15T06:52:18;9.60;;;7.20;;
34960;SDS011;30789;52.030;7.110;2022-11-15T06:54:48;13.15;;;7.95;;
34960;SDS011;30789;52.030;7.110;2022-11-15T06:57:14;14.55;;;8.15;;
34960;SDS011;30789;52.030;7.110;2022-11-15T06:59:40;11.63;;;7.53;;
34960;SDS011;30789;52.030;7.110;2022-11-15T07:02:10;12.18;;;7.88;;
34960;SDS011;30789;52.030;7.110;2022-11-15T07:04:38;13.53;;;7.73;;
34960;SDS011;30789;52.030;7.110;2022-11-15T07:07:04;10.63;;;7.22;;
34960;SDS011;30789;52.030;7.110;2022-11-15T07:09:31;10.02;;;7.30;;
34960;SDS011;30789;52.030;7.110;2022-11-15T07:11:58;12.40;;;7.93;;
34960;SDS011;30789;52.030;7.110;2022-11-15T07:14:25;12.02;;;7.43;;
34960;SDS011;30789;52.030;7.110;2022-11-15T07:16:51;8.93;;;7.40;;
34960;SDS011;30789;52.030;7.110;2022-11-15T07:19:18;10.43;;;7.07;;
34960;SDS011;30789;52.030;7.110;2022-11-15T07:21:44;11.57;;;7.18;;
34960;SDS011;30789;52.030;7.110;2022-11-15T07:24:11;9.20;;;7.18;;
34960;SDS011;30789;52.030;7.110;2022-11-15T07:26:38;10.50;;;7.22;;
34960;SDS011;30789;52.030;7.110;2022-11-15T07:29:06;9.40;;;6.95;;
34960;SDS011;30789;52.030;7.110;2022-11-15T07:31:32;9.45;;;6.90;;
34960;SDS011;30789;52.030;7.110;2022-11-15T07:33:59;13.02;;;8.00;;
34960;SDS011;30789;52.030;7.110;2022-11-15T07:36:25;11.95;;;7.55;;
34960;SDS011;30789;52.030;7.110;2022-11-15T07:38:52;10.57;;;7.22;;
34960;SDS011;30789;52.030;7.110;2022-11-15T07:41:18;11.70;;;8.57;;
34960;SDS011;30789;52.030;7.110;2022-11-15T07:43:45;12.68;;;8.05;;
34960;SDS011;30789;52.030;7.110;2022-11-15T07:46:12;11.05;;;8.13;;
34960;SDS011;30789;52.030;7.110;2022-11-15T07:48:39;11.02;;;7.22;;
34960;SDS011;30789;52.030;7.110;2022-11-15T07:51:05;11.50;;;7.90;;
34960;SDS011;30789;52.030;7.110;2022-11-15T07:53:32;13.57;;;8.70;;
34960;SDS011;30789;52.030;7.110;2022-11-15T07:55:59;9.45;;;7.50;;
34960;SDS011;30789;52.030;7.110;2022-11-15T07:58:25;8.55;;;6.93;;
34960;SDS011;30789;52.030;7.110;2022-11-15T08:00:51;8.60;;;6.50;;
34960;SDS011;30789;52.030;7.110;2022-11-15T08:03:19;9.15;;;6.72;;
34960;SDS011;30789;52.030;7.110;2022-11-15T08:05:49;9.45;;;7.35;;
34960;SDS011;30789;52.030;7.110;2022-11-15T08:08:17;10.27;;;6.75;;
34960;SDS011;30789;52.030;7.110;2022-11-15T08:10:43;12.15;;;7.05;;
34960;SDS011;30789;52.030;7.110;2022-11-15T08:13:10;10.02;;;7.43;;
34960;SDS011;30789;52.030;7.110;2022-11-15T08:15:38;9.35;;;6.82;;
34960;SDS011;30789;52.030;7.110;2022-11-15T08:18:05;10.35;;;7.20;;
34960;SDS011;30789;52.030;7.110;2022-11-15T08:20:35;10.35;;;7.05;;
34960;SDS011;30789;52.030;7.110;2022-11-15T08:23:02;10.60;;;6.55;;
34960;SDS011;30789;52.030;7.110;2022-11-15T08:25:31;8.27;;;6.18;;
34960;SDS011;30789;52.030;7.110;2022-11-15T08:27:59;10.57;;;7.07;;
34960;SDS011;30789;52.030;7.110;2022-11-15T08:30:27;10.80;;;7.22;;
34960;SDS011;30789;52.030;7.110;2022-11-15T08:32:55;10.13;;;6.95;;
34960;SDS011;30789;52.030;7.110;2022-11-15T08:35:23;10.77;;;6.30;;
34960;SDS011;30789;52.030;7.110;2022-11-15T08:37:53;9.50;;;6.43;;
34960;SDS011;30789;52.030;7.110;2022-11-15T08:40:19;11.65;;;7.55;;
34960;SDS011;30789;52.030;7.110;2022-11-15T08:42:46;10.07;;;6.65;;
34960;SDS011;30789;52.030;7.110;2022-11-15T08:45:13;11.32;;;5.78;;
34960;SDS011;30789;52.030;7.110;2022-11-15T08:47:40;9.38;;;6.15;;
34960;SDS011;30789;52.030;7.110;2022-11-15T08:50:07;8.15;;;5.82;;
34960;SDS011;30789;52.030;7.110;2022-11-15T08:52:34;9.63;;;5.72;;
34960;SDS011;30789;52.030;7.110;2022-11-15T08:55:02;8.55;;;5.82;;
34960;SDS011;30789;52.030;7.110;2022-11-15T08:57:28;9.98;;;5.78;;
34960;SDS011;30789;52.030;7.110;2022-11-15T08:59:56;8.50;;;5.28;;
34960;SDS011;30789;52.030;7.110;2022-11-15T09:02:22;6.22;;;4.88;;
34960;SDS011;30789;52.030;7.110;2022-11-15T09:04:49;6.93;;;5.43;;
34960;SDS011;30789;52.030;7.110;2022-11-15T09:07:15;6.90;;;5.43;;
34960;SDS011;30789;52.030;7.110;2022-11-15T09:09:42;9.05;;;5.15;;
34960;SDS011;30789;52.030;7.110;2022-11-15T09:12:10;6.75;;;4.55;;
34960;SDS011;30789;52.030;7.110;2022-11-15T09:14:36;6.93;;;4.60;;
34960;SDS011;30789;52.030;7.110;2022-11-15T09:17:03;5.90;;;3.88;;
34960;SDS011;30789;52.030;7.110;2022-11-15T09:19:33;6.05;;;4.03;;
34960;SDS011;30789;52.030;7.110;2022-11-15T09:22:00;5.10;;;4.13;;
34960;SDS011;30789;52.030;7.110;2022-11-15T09:24:26;5.88;;;4.03;;
34960;SDS011;30789;52.030;7.110;2022-11-15T09:26:52;6.70;;;4.63;;
34960;SDS011;30789;52.030;7.110;2022-11-15T09:29:20;6.18;;;3.92;;
34960;SDS011;30789;52.030;7.110;2022-11-15T09:31:47;6.05;;;4.25;;
34960;SDS011;30789;52.030;7.110;2022-11-15T09:34:13;5.97;;;4.28;;
34960;SDS011;30789;52.030;7.110;2022-11-15T09:36:40;5.90;;;4.45;;
34960;SDS011;30789;52.030;7.110;2022-11-15T09:39:06;4.95;;;3.92;;
34960;SDS011;30789;52.030;7.110;2022-11-15T09:44:42;4.47;;;2.78;;
34960;SDS011;30789;52.030;7.110;2022-11-15T09:47:32;3.38;;;2.75;;
34960;SDS011;30789;52.030;7.110;2022-11-15T09:50:20;4.05;;;3.05;;
34960;SDS011;30789;52.030;7.110;2022-11-15T09:52:57;3.97;;;2.05;;
34960;SDS011;30789;52.030;7.110;2022-11-15T09:55:25;5.35;;;2.17;;
34960;SDS011;30789;52.030;7.110;2022-11-15T09:58:03;2.35;;;1.60;;
34960;SDS011;30789;52.030;7.110;2022-11-15T10:00:38;1.77;;;1.20;;
34960;SDS011;30789;52.030;7.110;2022-11-15T10:03:10;1.30;;;1.20;;
34960;SDS011;30789;52.030;7.110;2022-11-15T10:05:39;1.27;;;1.17;;
34960;SDS011;30789;52.030;7.110;2022-11-15T10:08:11;2.28;;;1.35;;
34960;SDS011;30789;52.030;7.110;2022-11-15T10:10:49;1.77;;;1.10;;
34960;SDS011;30789;52.030;7.110;2022-11-15T10:13:22;1.70;;;1.60;;
34960;SDS011;30789;52.030;7.110;2022-11-15T10:15:52;4.15;;;1.67;;
34960;SDS011;30789;52.030;7.110;2022-11-15T10:18:21;2.53;;;1.30;;
34960;SDS011;30789;52.030;7.110;2022-11-15T10:20:58;0.90;;;0.90;;
34960;SDS011;30789;52.030;7.110;2022-11-15T10:23:28;1.67;;;1.10;;
34960;SDS011;30789;52.030;7.110;2022-11-15T10:25:58;1.27;;;1.02;;
34960;SDS011;30789;52.030;7.110;2022-11-15T10:30:58;2.03;;;1.23;;
34960;SDS011;30789;52.030;7.110;2022-11-15T10:33:26;2.75;;;1.20;;
34960;SDS011;30789;52.030;7.110;2022-11-15T10:36:14;0.88;;;0.88;;
34960;SDS011;30789;52.030;7.110;2022-11-15T10:38:56;1.40;;;1.27;;
34960;SDS011;30789;52.030;7.110;2022-11-15T10:41:31;2.25;;;0.98;;
34960;SDS011;30789;52.030;7.110;2022-11-15T10:44:09;2.17;;;1.27;;
34960;SDS011;30789;52.030;7.110;2022-11-15T10:46:42;1.05;;;0.93;;
34960;SDS011;30789;52.030;7.110;2022-11-15T10:49:12;1.02;;;0.60;;
34960;SDS011;30789;52.030;7.110;2022-11-15T10:51:41;3.10;;;0.93;;
34960;SDS011;30789;52.030;7.110;2022-11-15T10:54:11;1.30;;;0.60;;
34960;SDS011;30789;52.030;7.110;2022-11-15T10:56:42;0.60;;;0.50;;
34960;SDS011;30789;52.030;7.110;2022-11-15T10:59:14;1.15;;;0.82;;
34960;SDS011;30789;52.030;7.110;2022-11-15T11:01:46;1.45;;;0.98;;
34960;SDS011;30789;52.030;7.110;2022-11-15T11:04:14;1.13;;;1.02;;
34960;SDS011;30789;52.030;7.110;2022-11-15T11:06:46;1.13;;;1.02;;
34960;SDS011;30789;52.030;7.110;2022-11-15T11:09:21;3.17;;;1.20;;
34960;SDS011;30789;52.030;7.110;2022-11-15T11:11:53;3.35;;;1.95;;
34960;SDS011;30789;52.030;7.110;2022-11-15T11:14:20;2.70;;;1.50;;
34960;SDS011;30789;52.030;7.110;2022-11-15T11:16:51;3.00;;;1.80;;
34960;SDS011;30789;52.030;7.110;2022-11-15T11:19:30;4.82;;;2.05;;
34960;SDS011;30789;52.030;7.110;2022-11-15T11:22:06;4.20;;;2.03;;
34960;SDS011;30789;52.030;7.110;2022-11-15T11:24:42;2.75;;;2.05;;
34960;SDS011;30789;52.030;7.110;2022-11-15T11:27:18;2.88;;;2.03;;
34960;SDS011;30789;52.030;7.110;2022-11-15T11:32:49;3.63;;;2.35;;
34960;SDS011;30789;52.030;7.110;2022-11-15T11:35:32;4.55;;;1.92;;
34960;SDS011;30789;52.030;7.110;2022-11-15T11:38:10;4.32;;;2.30;;
34960;SDS011;30789;52.030;7.110;2022-11-15T11:43:30;2.10;;;1.67;;
34960;SDS011;30789;52.030;7.110;2022-11-15T11:46:09;1.98;;;1.48;;
34960;SDS011;30789;52.030;7.110;2022-11-15T11:48:50;5.55;;;2.47;;
34960;SDS011;30789;52.030;7.110;2022-11-15T11:51:23;2.35;;;1.67;;
34960;SDS011;30789;52.030;7.110;2022-11-15T11:53:54;6.00;;;1.90;;
34960;SDS011;30789;52.030;7.110;2022-11-15T11:56:24;2.85;;;2.15;;
34960;SDS011;30789;52.030;7.110;2022-11-15T11:58:53;1.35;;;1.10;;
34960;SDS011;30789;52.030;7.110;2022-11-15T12:01:24;2.50;;;1.23;;
34960;SDS011;30789;52.030;7.110;2022-11-15T12:03:55;3.22;;;1.33;;
34960;SDS011;30789;52.030;7.110;2022-11-15T12:06:26;7.28;;;1.05;;
34960;SDS011;30789;52.030;7.110;2022-11-15T12:08:58;1.30;;;0.88;;
34960;SDS011;30789;52.030;7.110;2022-11-15T12:13:59;2.53;;;0.80;;
34960;SDS011;30789;52.030;7.110;2022-11-15T12:16:29;0.80;;;0.77;;
34960;SDS011;30789;52.030;7.110;2022-11-15T12:19:00;1.63;;;0.88;;
34960;SDS011;30789;52.030;7.110;2022-11-15T12:21:30;1.45;;;0.95;;
34960;SDS011;30789;52.030;7.110;2022-11-15T12:24:02;0.70;;;0.63;;
34960;SDS011;30789;52.030;7.110;2022-11-15T12:26:33;2.70;;;0.90;;
34960;SDS011;30789;52.030;7.110;2022-11-15T12:29:03;1.92;;;0.85;;
34960;SDS011;30789;52.030;7.110;2022-11-15T12:31:36;1.38;;;0.80;;
34960;SDS011;30789;52.030;7.110;2022-11-15T12:34:15;2.42;;;0.65;;
34960;SDS011;30789;52.030;7.110;2022-11-15T12:36:55;1.27;;;0.77;;
34960;SDS011;30789;52.030;7.110;2022-11-15T12:40:02;1.42;;;0.50;;
34960;SDS011;30789;52.030;7.110;2022-11-15T12:42:39;1.70;;;0.70;;
34960;SDS011;30789;52.030;7.110;2022-11-15T12:47:52;0.65;;;0.40;;
34960;SDS011;30789;52.030;7.110;2022-11-15T12:53:26;2.22;;;0.50;;
34960;SDS011;30789;52.030;7.110;2022-11-15T12:56:08;1.05;;;0.85;;
34960;SDS011;30789;52.030;7.110;2022-11-15T12:58:42;0.80;;;0.50;;
34960;SDS011;30789;52.030;7.110;2022-11-15T13:01:14;0.65;;;0.40;;
34960;SDS011;30789;52.030;7.110;2022-11-15T13:04:25;1.73;;;0.68;;
34960;SDS011;30789;52.030;7.110;2022-11-15T13:06:54;1.67;;;0.68;;
34960;SDS011;30789;52.030;7.110;2022-11-15T13:09:50;1.67;;;0.60;;
34960;SDS011;30789;52.030;7.110;2022-11-15T13:20:53;2.23;;;0.73;;
34960;SDS011;30789;52.030;7.110;2022-11-15T13:23:21;2.17;;;0.90;;
34960;SDS011;30789;52.030;7.110;2022-11-15T13:25:53;9.48;;;5.15;;
34960;SDS011;30789;52.030;7.110;2022-11-15T13:28:41;4.85;;;3.08;;
34960;SDS011;30789;52.030;7.110;2022-11-15T13:33:57;12.25;;;5.63;;
34960;SDS011;30789;52.030;7.110;2022-11-15T13:36:28;15.90;;;7.72;;
34960;SDS011;30789;52.030;7.110;2022-11-15T13:39:00;3.95;;;2.15;;
34960;SDS011;30789;52.030;7.110;2022-11-15T13:41:28;3.85;;;1.70;;
34960;SDS011;30789;52.030;7.110;2022-11-15T13:43:57;7.10;;;3.70;;
34960;SDS011;30789;52.030;7.110;2022-11-15T13:46:25;3.63;;;1.65;;
34960;SDS011;30789;52.030;7.110;2022-11-15T13:48:54;11.10;;;5.20;;
34960;SDS011;30789;52.030;7.110;2022-11-15T13:51:24;5.35;;;2.58;;
34960;SDS011;30789;52.030;7.110;2022-11-15T13:53:56;4.47;;;2.20;;
34960;SDS011;30789;52.030;7.110;2022-11-15T13:56:27;3.88;;;2.70;;
34960;SDS011;30789;52.030;7.110;2022-11-15T13:58:57;8.07;;;2.47;;
34960;SDS011;30789;52.030;7.110;2022-11-15T14:01:30;11.23;;;4.82;;
34960;SDS011;30789;52.030;7.110;2022-11-15T14:03:58;9.23;;;4.35;;
34960;SDS011;30789;52.030;7.110;2022-11-15T14:06:27;5.13;;;1.17;;
34960;SDS011;30789;52.030;7.110;2022-11-15T14:09:03;5.70;;;2.10;;
34960;SDS011;30789;52.030;7.110;2022-11-15T14:11:50;10.18;;;4.90;;
34960;SDS011;30789;52.030;7.110;2022-11-15T14:14:19;9.88;;;3.80;;
34960;SDS011;30789;52.030;7.110;2022-11-15T14:16:48;17.45;;;8.02;;
34960;SDS011;30789;52.030;7.110;2022-11-15T14:22:14;30.08;;;12.77;;
34960;SDS011;30789;52.030;7.110;2022-11-15T14:24:45;30.40;;;14.52;;
34960;SDS011;30789;52.030;7.110;2022-11-15T14:27:22;28.48;;;11.85;;
34960;SDS011;30789;52.030;7.110;2022-11-15T14:29:50;7.35;;;3.63;;
34960;SDS011;30789;52.030;7.110;2022-11-15T14:32:18;3.13;;;2.47;;
34960;SDS011;30789;52.030;7.110;2022-11-15T14:34:46;4.18;;;1.25;;
34960;SDS011;30789;52.030;7.110;2022-11-15T14:37:21;2.90;;;1.35;;
34960;SDS011;30789;52.030;7.110;2022-11-15T14:39:49;1.90;;;1.27;;
34960;SDS011;30789;52.030;7.110;2022-11-15T14:42:16;2.75;;;1.38;;
34960;SDS011;30789;52.030;7.110;2022-11-15T14:44:45;6.25;;;1.40;;
34960;SDS011;30789;52.030;7.110;2022-11-15T14:47:11;1.85;;;1.13;;
34960;SDS011;30789;52.030;7.110;2022-11-15T14:49:38;1.00;;;0.60;;
34960;SDS011;30789;52.030;7.110;2022-11-15T14:52:09;1.30;;;0.90;;
34960;SDS011;30789;52.030;7.110;2022-11-15T14:54:49;2.30;;;0.80;;
34960;SDS011;30789;52.030;7.110;2022-11-15T14:57:16;5.43;;;0.70;;
34960;SDS011;30789;52.030;7.110;2022-11-15T14:59:42;1.20;;;0.60;;
34960;SDS011;30789;52.030;7.110;2022-11-15T15:02:10;1.33;;;0.50;;
34960;SDS011;30789;52.030;7.110;2022-11-15T15:04:43;0.60;;;0.55;;
34960;SDS011;30789;52.030;7.110;2022-11-15T15:07:10;2.85;;;0.60;;
34960;SDS011;30789;52.030;7.110;2022-11-15T15:09:36;1.98;;;0.50;;
34960;SDS011;30789;52.030;7.110;2022-11-15T15:12:03;1.02;;;0.60;;
34960;SDS011;30789;52.030;7.110;2022-11-15T15:14:29;0.63;;;0.47;;
34960;SDS011;30789;52.030;7.110;2022-11-15T15:16:56;0.70;;;0.43;;
34960;SDS011;30789;52.030;7.110;2022-11-15T15:19:24;0.93;;;0.60;;
34960;SDS011;30789;52.030;7.110;2022-11-15T15:21:50;4.68;;;0.60;;
34960;SDS011;30789;52.030;7.110;2022-11-15T15:24:16;2.50;;;1.75;;
34960;SDS011;30789;52.030;7.110;2022-11-15T15:26:43;1.73;;;1.63;;
34960;SDS011;30789;52.030;7.110;2022-11-15T15:29:09;4.03;;;1.70;;
34960;SDS011;30789;52.030;7.110;2022-11-15T15:31:36;5.15;;;2.88;;
34960;SDS011;30789;52.030;7.110;2022-11-15T15:34:02;18.13;;;10.48;;
34960;SDS011;30789;52.030;7.110;2022-11-15T15:36:30;13.60;;;5.32;;